createdAt,value
2018-02-09T00:01:10.988Z,61.50
2018-02-09T00:03:39.195Z,64.17
2018-02-09T00:06:06.631Z,57.73
2018-02-09T00:08:34.079Z,61.23
2018-02-09T00:11:01.524Z,72.20
2018-02-09T00:13:29.735Z,63.43
2018-02-09T00:15:57.166Z,65.50
2018-02-09T00:18:24.603Z,58.93
2018-02-09T00:20:52.039Z,57.80
2018-02-09T00:23:19.482Z,58.27
2018-02-09T00:25:46.921Z,61.57
2018-02-09T00:28:15.151Z,73.33
2018-02-09T00:30:42.582Z,79.90
2018-02-09T00:33:10.027Z,72.97
2018-02-09T00:35:37.462Z,73.67
2018-02-09T00:38:05.682Z,71.80
2018-02-09T00:40:33.114Z,74.03
2018-02-09T00:43:00.559Z,66.77
2018-02-09T00:45:28.003Z,67.33
2018-02-09T00:47:56.214Z,65.87
2018-02-09T00:50:23.661Z,64.13
2018-02-09T00:52:51.108Z,58.27
2018-02-09T00:55:18.538Z,70.27
2018-02-09T00:57:46.745Z,86.07
2018-02-09T01:00:14.958Z,73.63
2018-02-09T01:02:42.394Z,69.00
2018-02-09T01:05:09.834Z,67.30
2018-02-09T01:07:37.276Z,65.03
2018-02-09T01:10:05.480Z,69.47
2018-02-09T01:12:33.689Z,70.60
2018-02-09T01:15:01.902Z,75.20
2018-02-09T01:17:29.326Z,68.60
2018-02-09T01:19:56.766Z,64.77
2018-02-09T01:22:24.199Z,61.50
2018-02-09T01:24:51.690Z,66.43
2018-02-09T01:27:19.129Z,70.20
2018-02-09T01:29:46.570Z,66.90
2018-02-09T01:32:14.006Z,63.33
2018-02-09T01:34:41.455Z,71.43
2018-02-09T01:37:08.919Z,67.17
2018-02-09T01:39:37.127Z,69.93
2018-02-09T01:42:04.566Z,70.50
2018-02-09T01:44:32.027Z,65.80
2018-02-09T01:47:00.242Z,62.23
2018-02-09T01:49:27.807Z,59.80
2018-02-09T01:51:56.011Z,61.33
2018-02-09T01:54:23.459Z,57.87
2018-02-09T01:56:50.894Z,60.80
2018-02-09T01:59:18.330Z,58.60
2018-02-09T02:01:45.834Z,69.37
2018-02-09T02:04:13.278Z,72.47
2018-02-09T02:06:40.767Z,75.30
2018-02-09T02:09:08.191Z,75.87
2018-02-09T02:11:35.625Z,75.33
2018-02-09T02:14:03.153Z,69.57
2018-02-09T02:16:30.697Z,61.27
2018-02-09T02:18:58.382Z,78.33
2018-02-09T02:21:26.730Z,68.27
2018-02-09T02:23:54.943Z,79.90
2018-02-09T02:26:22.382Z,69.30
2018-02-09T02:28:49.823Z,80.70
2018-02-09T02:31:17.263Z,72.13
2018-02-09T02:33:44.691Z,70.47
2018-02-09T02:36:12.266Z,65.47
2018-02-09T02:38:39.702Z,76.83
2018-02-09T02:41:07.325Z,68.87
2018-02-09T02:43:34.755Z,66.10
2018-02-09T02:46:02.204Z,57.33
2018-02-09T02:48:30.404Z,66.20
2018-02-09T02:50:58.622Z,67.43
2018-02-09T02:53:26.056Z,66.87
2018-02-09T02:55:53.500Z,66.70
2018-02-09T02:58:20.939Z,60.23
2018-02-09T03:00:48.384Z,64.00
2018-02-09T03:03:15.823Z,61.03
2018-02-09T03:05:43.263Z,55.93
2018-02-09T03:08:10.712Z,61.97
2018-02-09T03:10:38.907Z,65.30
2018-02-09T03:13:07.996Z,63.30
2018-02-09T03:15:36.323Z,68.97
2018-02-09T03:18:04.539Z,68.67
2018-02-09T03:20:31.972Z,68.53
2018-02-09T03:22:59.420Z,65.83
2018-02-09T03:25:26.855Z,60.83
2018-02-09T03:27:55.069Z,63.90
2018-02-09T03:30:23.272Z,75.20
2018-02-09T03:32:50.719Z,67.57
2018-02-09T03:35:18.155Z,73.23
2018-02-09T03:37:45.598Z,73.87
2018-02-09T03:40:13.040Z,71.00
2018-02-09T03:42:40.490Z,82.73
2018-02-09T03:45:07.924Z,80.83
2018-02-09T03:47:35.367Z,68.30
2018-02-09T03:50:02.803Z,72.50
2018-02-09T03:52:30.247Z,72.03
2018-02-09T03:54:57.687Z,76.13
2018-02-09T03:57:25.131Z,65.07
2018-02-09T03:59:52.567Z,75.90
2018-02-09T04:02:20.016Z,75.33
2018-02-09T04:04:48.220Z,75.67
2018-02-09T04:07:16.443Z,69.00
2018-02-09T04:09:43.907Z,66.00
2018-02-09T04:12:12.122Z,66.83
2018-02-09T04:14:39.565Z,71.47
2018-02-09T04:17:07.015Z,75.03
2018-02-09T04:19:34.451Z,74.70
2018-02-09T04:22:02.663Z,66.07
2018-02-09T04:24:30.100Z,64.13
2018-02-09T04:26:57.543Z,76.13
2018-02-09T04:29:24.983Z,75.70
2018-02-09T04:31:53.192Z,61.27
2018-02-09T04:34:21.434Z,67.90
2018-02-09T04:36:48.863Z,66.07
2018-02-09T04:39:17.067Z,65.00
2018-02-09T04:41:45.279Z,76.63
2018-02-09T04:44:13.479Z,70.93
2018-02-09T04:46:40.920Z,72.07
2018-02-09T04:49:08.355Z,73.73
2018-02-09T04:51:35.804Z,72.40
2018-02-09T04:54:03.243Z,64.47
2018-02-09T04:56:30.694Z,69.87
2018-02-09T04:58:58.135Z,64.70
2018-02-09T05:01:25.575Z,75.30
2018-02-09T05:03:53.028Z,70.70
2018-02-09T05:06:21.232Z,82.73
2018-02-09T05:08:48.680Z,66.03
2018-02-09T05:11:16.120Z,77.73
2018-02-09T05:13:43.563Z,69.97
2018-02-09T05:16:11.771Z,59.13
2018-02-09T05:18:39.975Z,71.03
2018-02-09T05:21:07.412Z,72.87
2018-02-09T05:23:34.856Z,75.33
2018-02-09T05:26:02.292Z,66.77
2018-02-09T05:28:30.505Z,75.80
2018-02-09T05:30:57.947Z,82.57
2018-02-09T05:33:25.396Z,85.63
2018-02-09T05:35:52.835Z,71.17
2018-02-09T05:38:21.052Z,71.67
2018-02-09T05:40:48.496Z,71.40
2018-02-09T05:43:15.943Z,69.07
2018-02-09T05:45:43.386Z,74.63
2018-02-09T05:48:11.597Z,76.83
2018-02-09T05:50:39.080Z,66.87
2018-02-09T05:53:06.527Z,71.27
2018-02-09T05:55:34.743Z,119.87
2018-02-09T05:58:02.959Z,110.10
2018-02-09T06:00:30.399Z,110.37
2018-02-09T06:02:57.851Z,108.33
2018-02-09T06:05:25.288Z,78.97
2018-02-09T06:07:52.784Z,85.43
2018-02-09T06:10:20.176Z,69.80
2018-02-09T06:12:47.619Z,72.87
2018-02-09T06:15:15.824Z,71.27
2018-02-09T06:17:44.035Z,76.03
2018-02-09T06:20:11.476Z,77.10
2018-02-09T06:22:38.919Z,68.80
2018-02-09T06:25:06.357Z,79.10
2018-02-09T06:27:34.608Z,83.27
2018-02-09T06:30:02.050Z,76.27
2018-02-09T06:32:30.248Z,86.30
2018-02-09T06:34:57.695Z,70.13
2018-02-09T06:37:25.135Z,71.43
2018-02-09T06:39:52.887Z,87.77
2018-02-09T06:42:21.091Z,72.80
2018-02-09T06:44:49.307Z,76.13
2018-02-09T06:47:16.743Z,63.87
2018-02-09T06:49:44.196Z,69.50
2018-02-09T06:52:11.635Z,78.70
2018-02-09T06:54:39.847Z,74.50
2018-02-09T06:57:07.291Z,73.73
2018-02-09T06:59:34.736Z,86.57
2018-02-09T07:02:02.179Z,78.77
2018-02-09T07:04:30.391Z,69.20
2018-02-09T07:06:57.836Z,71.97
2018-02-09T07:09:25.280Z,64.73
2018-02-09T07:11:52.723Z,76.40
2018-02-09T07:14:20.191Z,77.53
2018-02-09T07:16:48.399Z,72.77
2018-02-09T07:19:16.599Z,68.17
2018-02-09T07:21:44.835Z,66.23
2018-02-09T07:24:12.251Z,74.57
2018-02-09T07:26:39.691Z,76.20
2018-02-09T07:29:07.132Z,69.87
2018-02-09T07:31:35.339Z,69.33
2018-02-09T07:34:02.777Z,63.13
2018-02-09T07:36:30.219Z,68.80
2018-02-09T07:38:57.659Z,58.33
2018-02-09T07:41:25.872Z,74.60
2018-02-09T07:43:54.075Z,57.60
2018-02-09T07:46:22.291Z,82.07
2018-02-09T07:48:49.727Z,63.27
2018-02-09T07:51:17.172Z,58.80
2018-02-09T07:53:44.612Z,59.87
2018-02-09T07:56:12.823Z,59.50
2018-02-09T07:58:40.265Z,54.80
2018-02-09T08:01:07.716Z,58.70
2018-02-09T08:03:35.150Z,64.87
2018-02-09T08:06:03.362Z,53.73
2018-02-09T08:08:30.795Z,70.83
2018-02-09T08:10:58.241Z,63.93
2018-02-09T08:13:25.675Z,63.90
2018-02-09T08:15:53.124Z,63.53
2018-02-09T08:18:20.568Z,62.60
2018-02-09T08:20:48.020Z,53.33
2018-02-09T08:23:16.228Z,56.70
2018-02-09T08:25:44.427Z,64.17
2018-02-09T08:28:12.634Z,59.50
2018-02-09T08:30:40.079Z,64.17
2018-02-09T08:33:07.512Z,87.70
2018-02-09T08:35:34.959Z,48.87
2018-02-09T08:38:03.165Z,55.27
2018-02-09T08:40:31.372Z,52.47
2018-02-09T08:42:58.813Z,56.70
2018-02-09T08:45:26.264Z,54.03
2018-02-09T08:47:53.695Z,56.93
2018-02-09T08:50:21.947Z,48.73
2018-02-09T08:52:49.391Z,50.80
2018-02-09T08:55:16.828Z,54.10
2018-02-09T08:57:44.272Z,46.80
2018-02-09T09:00:11.711Z,44.50
2018-02-09T09:02:39.151Z,51.80
2018-02-09T09:05:06.587Z,54.63
2018-02-09T09:07:34.799Z,52.13
2018-02-09T09:10:02.238Z,51.83
2018-02-09T09:12:29.679Z,52.03
2018-02-09T09:14:57.115Z,54.80
2018-02-09T09:17:24.563Z,53.90
2018-02-09T09:19:52.003Z,45.93
2018-02-09T09:22:19.453Z,47.03
2018-02-09T09:24:46.879Z,51.00
2018-02-09T09:27:14.334Z,52.72
2018-02-09T09:29:41.771Z,54.08
2018-02-09T09:32:09.215Z,56.47
2018-02-09T09:34:36.658Z,51.30
2018-02-09T09:37:04.103Z,39.83
2018-02-09T09:39:31.544Z,50.53
2018-02-09T09:41:58.989Z,54.73
2018-02-09T09:44:26.423Z,55.80
2018-02-09T09:46:53.902Z,43.70
2018-02-09T09:49:21.335Z,46.40
2018-02-09T09:51:48.780Z,47.37
2018-02-09T09:54:16.216Z,47.17
2018-02-09T09:56:44.424Z,46.80
2018-02-09T09:59:11.859Z,46.70
2018-02-09T10:01:39.312Z,59.07
2018-02-09T10:04:06.768Z,43.53
2018-02-09T10:06:34.983Z,48.23
2018-02-09T10:09:03.186Z,44.87
2018-02-09T10:11:31.395Z,45.40
2018-02-09T10:13:58.855Z,48.73
2018-02-09T10:16:27.072Z,41.40
2018-02-09T10:18:55.275Z,46.37
2018-02-09T10:21:22.727Z,51.43
2018-02-09T10:23:50.172Z,42.80
2018-02-09T10:26:17.620Z,47.53
2018-02-09T10:28:45.064Z,41.07
2018-02-09T10:31:12.500Z,41.10
2018-02-09T10:33:39.962Z,45.70
2018-02-09T10:36:08.152Z,46.37
2018-02-09T10:38:36.363Z,46.03
2018-02-09T10:41:03.799Z,50.23
2018-02-09T10:43:31.280Z,45.00
2018-02-09T10:45:58.731Z,41.60
2018-02-09T10:48:26.176Z,43.80
2018-02-09T10:50:53.611Z,49.47
2018-02-09T10:53:21.056Z,51.00
2018-02-09T10:55:49.265Z,50.10
2018-02-09T10:58:17.467Z,50.77
2018-02-09T11:00:51.462Z,43.97
2018-02-09T11:03:18.920Z,45.90
2018-02-09T11:05:46.355Z,44.63
2018-02-09T11:08:13.799Z,41.57
2018-02-09T11:10:47.179Z,44.13
2018-02-09T11:13:16.203Z,50.50
2018-02-09T11:15:43.641Z,42.30
2018-02-09T11:18:11.088Z,44.73
2018-02-09T11:20:38.533Z,52.20
2018-02-09T11:23:06.744Z,50.20
2018-02-09T11:25:34.946Z,56.93
2018-02-09T11:28:03.156Z,49.20
2018-02-09T11:30:30.595Z,44.07
2018-02-09T11:32:58.052Z,52.23
2018-02-09T11:35:25.487Z,44.63
2018-02-09T11:37:53.682Z,44.47
2018-02-09T11:40:21.903Z,51.10
2018-02-09T11:42:49.344Z,51.30
2018-02-09T11:45:16.780Z,46.70
2018-02-09T11:47:44.215Z,51.43
2018-02-09T11:50:12.423Z,48.00
2018-02-09T11:52:40.627Z,45.23
2018-02-09T11:55:08.832Z,63.53
2018-02-09T11:57:37.039Z,58.13
2018-02-09T12:00:05.254Z,50.30
2018-02-09T12:02:32.688Z,56.35
2018-02-09T12:05:01.641Z,58.00
2018-02-09T12:07:29.844Z,51.50
2018-02-09T12:09:58.056Z,63.23
2018-02-09T12:12:26.260Z,50.37
2018-02-09T12:14:54.472Z,51.55
2018-02-09T12:17:21.919Z,57.95
2018-02-09T12:19:49.364Z,55.45
2018-02-09T12:22:16.819Z,57.75
2018-02-09T12:24:44.263Z,58.83
2018-02-09T12:27:11.745Z,52.45
2018-02-09T12:29:39.156Z,51.35
2018-02-09T12:32:07.362Z,54.03
2018-02-09T12:34:35.571Z,55.70
2018-02-09T12:37:03.779Z,57.47
2018-02-09T12:39:31.223Z,52.05
2018-02-09T12:41:58.672Z,55.63
2018-02-09T12:44:26.110Z,52.43
2018-02-09T12:46:53.562Z,49.10
2018-02-09T12:49:20.987Z,51.47
2018-02-09T12:51:48.439Z,48.70
2018-02-09T12:54:15.880Z,56.83
2018-02-09T12:56:43.358Z,52.53
2018-02-09T12:59:11.550Z,51.37
2018-02-09T13:01:39.755Z,55.97
2018-02-09T13:04:07.183Z,52.50
2018-02-09T13:06:34.627Z,48.20
2018-02-09T13:09:02.065Z,54.03
2018-02-09T13:11:29.507Z,63.00
2018-02-09T13:13:56.948Z,48.83
2018-02-09T13:16:24.398Z,52.57
2018-02-09T13:18:51.833Z,44.87
2018-02-09T13:21:20.951Z,56.63
2018-02-09T13:24:00.944Z,55.50
2018-02-09T13:26:28.396Z,54.37
2018-02-09T13:28:59.791Z,49.20
2018-02-09T13:31:28.022Z,54.90
2018-02-09T13:33:55.443Z,51.63
2018-02-09T13:36:34.911Z,45.67
2018-02-09T13:39:02.351Z,61.65
2018-02-09T13:41:29.803Z,59.10
2018-02-09T13:43:57.247Z,62.15
2018-02-09T13:46:24.701Z,54.80
2018-02-09T13:48:52.146Z,52.93
2018-02-09T13:51:21.166Z,53.78
2018-02-09T13:53:48.632Z,58.25
2018-02-09T13:56:16.849Z,57.30
2018-02-09T13:58:44.287Z,54.83
2018-02-09T14:01:11.743Z,57.08
2018-02-09T14:03:39.207Z,57.95
2018-02-09T14:06:06.660Z,57.40
2018-02-09T14:08:34.863Z,60.17
2018-02-09T14:11:02.311Z,64.85
2018-02-09T14:13:29.748Z,61.57
2018-02-09T14:15:57.208Z,79.75
2018-02-09T14:18:24.650Z,70.47
2018-02-09T14:20:52.094Z,64.40
2018-02-09T14:23:19.531Z,60.75
2018-02-09T14:25:47.736Z,60.10
2018-02-09T14:28:15.947Z,59.90
2018-02-09T14:30:43.387Z,61.78
2018-02-09T14:33:10.863Z,62.08
2018-02-09T14:35:38.299Z,56.67
2018-02-09T14:38:05.751Z,59.97
2018-02-09T14:40:33.966Z,62.47
2018-02-09T14:43:01.411Z,62.75
2018-02-09T14:45:28.875Z,61.90
2018-02-09T14:47:56.315Z,56.83
2018-02-09T14:50:23.755Z,55.10
2018-02-09T14:52:51.214Z,57.85
2018-02-09T14:55:18.652Z,59.55
2018-02-09T14:57:46.108Z,61.92
2018-02-09T15:00:13.569Z,57.25
2018-02-09T15:02:40.991Z,58.67
2018-02-09T15:05:08.443Z,64.95
2018-02-09T15:07:35.883Z,67.78
2018-02-09T15:10:03.324Z,66.23
2018-02-09T15:12:31.540Z,56.88
2018-02-09T15:14:58.979Z,62.20
2018-02-09T15:17:26.427Z,62.35
2018-02-09T15:19:53.872Z,63.35
2018-02-09T15:22:21.315Z,64.72
2018-02-09T15:24:48.752Z,62.95
2018-02-09T15:27:16.208Z,60.88
2018-02-09T15:29:43.649Z,57.17
2018-02-09T15:32:11.095Z,63.90
2018-02-09T15:34:38.532Z,61.47
2018-02-09T15:37:05.979Z,57.60
2018-02-09T15:39:33.430Z,55.05
2018-02-09T15:42:00.880Z,63.28
2018-02-09T15:44:28.311Z,62.27
2018-02-09T15:46:55.767Z,58.38
2018-02-09T15:49:23.207Z,61.97
2018-02-09T15:51:50.652Z,63.50
2018-02-09T15:54:18.092Z,62.85
2018-02-09T15:56:46.308Z,66.35
2018-02-09T15:59:13.743Z,59.87
2018-02-09T16:01:41.195Z,58.97
2018-02-09T16:04:08.637Z,62.58
2018-02-09T16:06:36.851Z,59.25
2018-02-09T16:09:04.308Z,55.33
2018-02-09T16:11:32.523Z,65.25
2018-02-09T16:14:00.003Z,63.08
2018-02-09T16:16:27.407Z,65.93
2018-02-09T16:18:54.848Z,62.75
2018-02-09T16:21:23.051Z,62.83
2018-02-09T16:23:51.268Z,63.40
2018-02-09T16:26:18.720Z,68.75
2018-02-09T16:28:46.988Z,69.50
2018-02-09T16:31:14.423Z,68.43
2018-02-09T16:33:41.868Z,62.15
2018-02-09T16:36:09.308Z,68.07
2018-02-09T16:38:36.752Z,63.97
2018-02-09T16:41:04.955Z,63.80
2018-02-09T16:43:33.175Z,70.78
2018-02-09T16:46:00.611Z,68.03
2018-02-09T16:48:28.055Z,66.37
2018-02-09T16:50:55.503Z,65.18
2018-02-09T16:53:22.954Z,60.75
2018-02-09T16:55:50.392Z,68.75
2018-02-09T16:58:17.835Z,61.50
2018-02-09T17:00:45.266Z,66.82
2018-02-09T17:03:12.730Z,65.62
2018-02-09T17:05:40.160Z,67.10
2018-02-09T17:08:07.608Z,66.53
2018-02-09T17:10:35.055Z,63.10
2018-02-09T17:13:02.509Z,72.75
2018-02-09T17:15:29.939Z,79.63
2018-02-09T17:17:57.388Z,88.03
2018-02-09T17:20:24.827Z,89.25
2018-02-09T17:22:52.336Z,72.15
2018-02-09T17:25:20.551Z,85.78
2018-02-09T17:27:48.008Z,130.60
2018-02-09T17:30:16.216Z,113.37
2018-02-09T17:32:44.416Z,91.30
2018-02-09T17:35:12.639Z,99.87
2018-02-09T17:37:40.080Z,92.28
2018-02-09T17:40:08.296Z,75.90
2018-02-09T17:42:35.741Z,69.30
2018-02-09T17:45:03.189Z,68.78
2018-02-09T17:47:30.611Z,68.40
2018-02-09T17:49:58.063Z,64.03
2018-02-09T17:52:25.502Z,63.95
2018-02-09T17:54:52.967Z,67.67
2018-02-09T17:57:20.399Z,71.50
2018-02-09T17:59:48.610Z,70.18
2018-02-09T18:02:16.056Z,74.27
2018-02-09T18:04:43.508Z,69.15
2018-02-09T18:07:11.712Z,66.35
2018-02-09T18:09:39.927Z,77.68
2018-02-09T18:12:07.359Z,73.97
2018-02-09T18:14:34.821Z,68.00
2018-02-09T18:17:02.264Z,71.60
2018-02-09T18:19:29.711Z,75.43
2018-02-09T18:21:57.148Z,86.57
2018-02-09T18:24:24.632Z,93.57
2018-02-09T18:26:52.047Z,71.97
2018-02-09T18:29:19.495Z,86.35
2018-02-09T18:31:46.939Z,83.68
2018-02-09T18:34:14.379Z,87.20
2018-02-09T18:36:41.820Z,76.85
2018-02-09T18:39:09.255Z,81.50
2018-02-09T18:41:36.699Z,82.75
2018-02-09T18:44:04.140Z,72.63
2018-02-09T18:46:34.483Z,74.23
2018-02-09T18:49:02.683Z,70.70
2018-02-09T18:51:30.892Z,79.30
2018-02-09T18:53:58.328Z,70.87
2018-02-09T18:56:25.775Z,62.70
2018-02-09T18:58:53.258Z,72.70
2018-02-09T19:01:21.428Z,86.37
2018-02-09T19:03:49.626Z,73.50
2018-02-09T19:06:17.078Z,77.03
2018-02-09T19:08:44.516Z,69.20
2018-02-09T19:11:11.955Z,76.07
2018-02-09T19:13:40.160Z,79.60
2018-02-09T19:16:08.370Z,70.83
2018-02-09T19:18:36.572Z,68.53
2018-02-09T19:21:04.015Z,63.20
2018-02-09T19:23:31.451Z,75.50
2018-02-09T19:25:58.905Z,68.53
2018-02-09T19:28:26.392Z,68.23
2018-02-09T19:30:53.827Z,76.47
2018-02-09T19:33:21.276Z,81.60
2018-02-09T19:35:48.712Z,68.23
2018-02-09T19:38:16.928Z,76.70
2018-02-09T19:40:44.360Z,61.93
2018-02-09T19:43:11.808Z,75.07
2018-02-09T19:45:39.248Z,66.53
2018-02-09T19:48:07.460Z,66.77
2018-02-09T19:50:35.664Z,79.53
2018-02-09T19:53:03.112Z,58.97
2018-02-09T19:55:30.696Z,65.43
2018-02-09T19:57:58.215Z,71.83
2018-02-09T20:00:25.575Z,77.20
2018-02-09T20:02:53.788Z,74.40
2018-02-09T20:05:21.228Z,69.30
2018-02-09T20:07:48.671Z,68.87
2018-02-09T20:10:16.111Z,67.70
2018-02-09T20:12:44.324Z,72.03
2018-02-09T20:15:12.527Z,80.40
2018-02-09T20:17:39.971Z,76.37
2018-02-09T20:20:07.411Z,77.63
2018-02-09T20:22:34.885Z,77.80
2018-02-09T20:25:03.051Z,77.93
2018-02-09T20:27:31.267Z,65.70
2018-02-09T20:29:58.749Z,75.93
2018-02-09T20:32:26.940Z,77.47
2018-02-09T20:34:54.383Z,83.93
2018-02-09T20:37:21.829Z,83.77
2018-02-09T20:39:49.268Z,66.37
2018-02-09T20:42:16.708Z,68.77
2018-02-09T20:44:44.919Z,83.67
2018-02-09T20:47:12.355Z,84.07
2018-02-09T20:49:39.808Z,75.13
2018-02-09T20:52:07.248Z,89.50
2018-02-09T20:54:35.460Z,88.13
2018-02-09T20:57:02.911Z,82.20
2018-02-09T20:59:30.343Z,71.17
2018-02-09T21:01:57.782Z,77.80
2018-02-09T21:04:25.991Z,70.77
2018-02-09T21:06:53.435Z,69.43
2018-02-09T21:09:20.879Z,68.70
2018-02-09T21:11:48.315Z,75.80
2018-02-09T21:14:16.523Z,78.60
2018-02-09T21:16:44.728Z,70.37
2018-02-09T21:19:12.171Z,81.00
2018-02-09T21:21:39.608Z,64.80
2018-02-09T21:24:07.049Z,75.67
2018-02-09T21:26:34.492Z,82.63
2018-02-09T21:29:01.927Z,80.43
2018-02-09T21:31:29.371Z,79.77
2018-02-09T21:33:56.807Z,75.90
2018-02-09T21:36:24.257Z,70.50
2018-02-09T21:38:52.459Z,87.37
2018-02-09T21:41:20.672Z,77.13
2018-02-09T21:43:48.112Z,78.73
2018-02-09T21:46:15.551Z,81.73
2018-02-09T21:48:42.992Z,82.70
2018-02-09T21:51:11.232Z,81.47
2018-02-09T21:53:38.700Z,67.40
2018-02-09T21:56:06.099Z,73.23
2018-02-09T21:58:33.539Z,83.07
2018-02-09T22:01:01.756Z,86.03
2018-02-09T22:03:29.191Z,84.60
2018-02-09T22:05:56.639Z,74.13
2018-02-09T22:08:24.080Z,81.50
2018-02-09T22:10:52.288Z,74.00
2018-02-09T22:13:19.724Z,85.23
2018-02-09T22:15:47.211Z,70.77
2018-02-09T22:18:14.661Z,85.90
2018-02-09T22:20:42.095Z,57.50
2018-02-09T22:23:10.307Z,66.37
2018-02-09T22:25:37.743Z,72.37
2018-02-09T22:28:05.195Z,81.00
2018-02-09T22:30:32.636Z,72.23
2018-02-09T22:33:00.847Z,66.70
2018-02-09T22:35:28.288Z,81.30
2018-02-09T22:37:55.736Z,77.50
2018-02-09T22:40:23.176Z,80.70
2018-02-09T22:42:51.386Z,76.97
2018-02-09T22:45:18.819Z,74.97
2018-02-09T22:47:46.265Z,73.13
2018-02-09T22:50:14.611Z,75.50
2018-02-09T22:52:42.056Z,68.47
2018-02-09T22:55:09.491Z,88.83
2018-02-09T22:57:37.704Z,73.87
2018-02-09T23:00:05.910Z,72.10
2018-02-09T23:02:33.379Z,74.60
2018-02-09T23:05:00.799Z,76.33
2018-02-09T23:07:28.243Z,70.37
2018-02-09T23:09:56.451Z,71.50
2018-02-09T23:12:23.903Z,71.33
2018-02-09T23:14:51.336Z,73.83
2018-02-09T23:17:18.775Z,63.20
2018-02-09T23:19:46.988Z,75.63
2018-02-09T23:22:14.422Z,72.43
2018-02-09T23:24:41.871Z,76.90
2018-02-09T23:27:09.308Z,70.27
2018-02-09T23:29:36.751Z,81.43
2018-02-09T23:32:04.191Z,58.50
2018-02-09T23:34:31.636Z,65.50
2018-02-09T23:36:59.104Z,80.93
2018-02-09T23:39:26.543Z,80.10
2018-02-09T23:41:53.979Z,76.67
2018-02-09T23:44:21.439Z,73.47
2018-02-09T23:46:48.872Z,95.87
2018-02-09T23:49:16.315Z,61.07
2018-02-09T23:51:43.755Z,75.00
2018-02-09T23:54:11.199Z,68.30
2018-02-09T23:56:39.399Z,72.27
2018-02-09T23:59:07.612Z,64.80
